createdAt,value
2022-11-05T00:02:18.423Z,33.20
2022-11-05T00:07:18.369Z,35.10
2022-11-05T00:12:18.288Z,47.20
2022-11-05T00:17:18.219Z,51.20
2022-11-05T00:22:18.277Z,39.80
2022-11-05T00:27:18.107Z,49.60
2022-11-05T00:32:18.064Z,50.70
2022-11-05T00:37:18.033Z,40.40
2022-11-05T00:42:17.962Z,48.00
2022-11-05T00:47:17.987Z,38.20
2022-11-05T00:52:17.907Z,39.80
2022-11-05T00:57:17.865Z,47.30
2022-11-05T01:02:26.869Z,48.30
2022-11-05T01:07:17.669Z,47.10
2022-11-05T01:12:17.605Z,52.50
2022-11-05T01:17:17.564Z,50.10
2022-11-05T01:22:17.505Z,44.30
2022-11-05T01:27:17.577Z,40.50
2022-11-05T01:32:17.475Z,53.80
2022-11-05T01:37:17.416Z,43.40
2022-11-05T01:42:17.404Z,51.40
2022-11-05T01:47:17.351Z,48.60
2022-11-05T01:52:17.262Z,51.80
2022-11-05T01:57:17.121Z,51.30
2022-11-05T02:02:17.145Z,50.60
2022-11-05T02:07:17.028Z,41.00
2022-11-05T02:12:16.965Z,56.40
2022-11-05T02:17:16.957Z,48.80
2022-11-05T02:22:16.902Z,39.50
2022-11-05T02:27:16.846Z,35.70
2022-11-05T02:32:16.797Z,39.00
2022-11-05T02:37:16.732Z,48.20
2022-11-05T02:42:16.654Z,38.10
2022-11-05T02:47:18.334Z,55.50
2022-11-05T02:52:16.548Z,40.90
2022-11-05T02:57:16.582Z,54.60
2022-11-05T03:02:17.707Z,55.50
2022-11-05T03:07:16.439Z,71.40
2022-11-05T03:12:16.395Z,59.60
2022-11-05T03:17:16.254Z,60.20
2022-11-05T03:22:16.213Z,52.40
2022-11-05T03:27:16.143Z,58.40
2022-11-05T03:32:16.122Z,59.00
2022-11-05T03:37:16.190Z,58.10
2022-11-05T03:42:17.057Z,62.90
2022-11-05T03:47:15.974Z,57.30
2022-11-05T03:52:15.900Z,54.30
2022-11-05T03:57:15.873Z,64.60
2022-11-05T04:02:16.874Z,79.00
2022-11-05T04:07:15.720Z,82.00
2022-11-05T04:12:15.670Z,71.50
2022-11-05T04:17:15.605Z,72.20
2022-11-05T04:22:15.546Z,83.70
2022-11-05T04:27:15.648Z,83.70
2022-11-05T04:32:15.527Z,75.20
2022-11-05T04:37:16.482Z,77.70
2022-11-05T04:42:16.422Z,95.30
2022-11-05T04:47:15.365Z,79.70
2022-11-05T04:52:15.223Z,65.20
2022-11-05T04:57:15.182Z,69.50
2022-11-05T05:02:15.219Z,58.00
2022-11-05T05:07:15.111Z,74.90
2022-11-05T05:12:15.050Z,76.10
2022-11-05T05:17:14.985Z,72.70
2022-11-05T05:22:14.924Z,84.00
2022-11-05T05:27:14.878Z,72.60
2022-11-05T05:32:14.787Z,92.70
2022-11-05T05:37:14.727Z,85.40
2022-11-05T05:42:14.696Z,91.10
2022-11-05T05:47:14.623Z,99.10
2022-11-05T05:52:14.719Z,96.50
2022-11-05T05:57:14.614Z,94.70
2022-11-05T06:02:14.585Z,85.80
2022-11-05T06:07:14.491Z,88.30
2022-11-05T06:12:14.437Z,102.00
2022-11-05T06:17:14.327Z,90.20
2022-11-05T06:22:14.305Z,94.50
2022-11-05T06:27:14.241Z,96.80
2022-11-05T06:32:15.209Z,99.90
2022-11-05T06:37:14.168Z,124.40
2022-11-05T06:42:18.771Z,124.30
2022-11-05T06:47:15.019Z,127.30
2022-11-05T06:52:13.941Z,142.30
2022-11-05T06:57:13.880Z,127.40
2022-11-05T07:02:13.934Z,135.70
2022-11-05T07:21:53.437Z,94.10
2022-11-05T07:26:54.299Z,92.00
2022-11-05T07:31:55.668Z,76.60
2022-11-05T07:37:10.995Z,85.10
2022-11-05T07:42:04.557Z,82.80
2022-11-05T07:46:56.437Z,95.80
2022-11-05T07:51:59.502Z,73.50
2022-11-05T07:56:53.528Z,75.30
2022-11-05T08:01:53.801Z,79.60
2022-11-05T08:06:55.459Z,70.30
2022-11-05T08:11:57.402Z,71.30
2022-11-05T08:16:53.824Z,71.30
2022-11-05T08:21:52.653Z,65.90
2022-11-05T08:26:54.597Z,53.00
2022-11-05T08:31:54.817Z,50.80
2022-11-05T08:36:53.574Z,48.00
2022-11-05T08:41:52.476Z,44.80
2022-11-05T08:46:53.368Z,44.30
2022-11-05T08:51:52.357Z,39.90
2022-11-05T08:56:52.272Z,42.10
2022-11-05T09:01:52.385Z,40.20
2022-11-05T09:06:52.150Z,35.40
2022-11-05T09:12:15.904Z,33.70
2022-11-05T09:16:53.008Z,30.80
2022-11-05T09:21:52.017Z,26.40
2022-11-05T09:26:52.002Z,28.50
2022-11-05T09:31:55.278Z,26.70
2022-11-05T09:36:51.909Z,24.90
2022-11-05T09:41:51.898Z,24.50
2022-11-05T09:46:51.689Z,24.00
2022-11-05T09:51:51.650Z,20.90
2022-11-05T09:56:51.582Z,26.70
2022-11-05T10:01:51.705Z,22.20
2022-11-05T10:06:51.484Z,22.60
2022-11-05T10:11:51.418Z,24.90
2022-11-05T10:16:51.452Z,23.80
2022-11-05T10:22:06.117Z,21.70
2022-11-05T10:26:52.443Z,23.60
2022-11-05T10:31:51.204Z,16.00
2022-11-05T10:36:51.217Z,17.80
2022-11-05T10:41:51.095Z,16.70
2022-11-05T10:46:51.041Z,19.40
2022-11-05T10:51:50.997Z,15.80
2022-11-05T10:56:50.984Z,17.80
2022-11-05T11:01:50.990Z,17.40
2022-11-05T11:06:50.863Z,18.40
2022-11-05T11:11:50.798Z,15.00
2022-11-05T11:16:50.699Z,13.60
2022-11-05T11:21:50.692Z,15.20
2022-11-05T11:26:50.601Z,15.10
2022-11-05T11:31:50.555Z,13.70
2022-11-05T11:36:50.492Z,14.90
2022-11-05T11:41:50.645Z,20.30
2022-11-05T11:46:51.408Z,17.10
2022-11-05T11:51:50.385Z,20.60
2022-11-05T11:56:50.358Z,15.80
2022-11-05T12:01:50.459Z,18.00
2022-11-05T12:06:50.153Z,18.10
2022-11-05T12:11:50.133Z,15.50
2022-11-05T12:16:50.054Z,17.30
2022-11-05T12:21:53.649Z,17.60
2022-11-05T12:26:49.990Z,15.80
2022-11-05T12:31:49.871Z,19.90
2022-11-05T12:36:49.797Z,16.10
2022-11-05T12:41:49.745Z,19.70
2022-11-05T12:46:49.703Z,17.50
2022-11-05T12:51:49.679Z,12.80
2022-11-05T12:56:49.578Z,12.30
2022-11-05T13:01:49.674Z,12.40
2022-11-05T13:06:58.356Z,14.60
2022-11-05T13:11:49.375Z,13.60
2022-11-05T13:16:50.344Z,13.90
2022-11-05T13:21:49.395Z,13.90
2022-11-05T13:26:49.313Z,14.00
2022-11-05T13:31:49.197Z,11.70
2022-11-05T13:36:49.115Z,8.80
2022-11-05T13:41:49.076Z,12.80
2022-11-05T13:46:49.029Z,9.80
2022-11-05T13:51:49.033Z,9.60
2022-11-05T13:56:48.983Z,11.30
2022-11-05T14:01:51.108Z,7.70
2022-11-05T14:06:52.346Z,16.20
2022-11-05T14:11:48.809Z,11.30
2022-11-05T14:16:48.754Z,12.90
2022-11-05T14:21:48.640Z,11.10
2022-11-05T14:26:48.554Z,15.30
2022-11-05T14:32:07.695Z,12.00
2022-11-05T14:36:49.487Z,20.90
2022-11-05T14:41:48.374Z,13.90
2022-11-05T14:46:48.372Z,10.90
2022-11-05T14:51:48.293Z,13.20
2022-11-05T14:56:53.282Z,12.50
2022-11-05T15:01:49.244Z,9.30
2022-11-05T15:06:48.123Z,12.10
2022-11-05T15:11:48.076Z,12.10
2022-11-05T15:16:48.103Z,16.80
2022-11-05T15:21:48.065Z,11.40
2022-11-05T15:26:47.915Z,26.50
2022-11-05T15:31:48.024Z,16.00
2022-11-05T15:36:47.805Z,13.40
2022-11-05T15:41:48.944Z,9.80
2022-11-05T15:46:47.870Z,9.00
2022-11-05T15:51:47.796Z,8.60
2022-11-05T15:56:47.657Z,10.80
2022-11-05T16:01:47.633Z,13.50
2022-11-05T16:06:47.461Z,10.10
2022-11-05T16:11:47.432Z,6.70
2022-11-05T16:16:47.385Z,6.60
2022-11-05T16:21:47.278Z,10.10
2022-11-05T16:27:03.426Z,17.00
2022-11-05T16:31:48.304Z,11.70
2022-11-05T16:36:47.179Z,7.00
2022-11-05T16:41:47.197Z,11.50
2022-11-05T16:46:46.998Z,13.10
2022-11-05T16:51:46.998Z,11.80
2022-11-05T16:56:46.896Z,9.00
2022-11-05T17:01:50.439Z,12.20
2022-11-05T17:06:47.829Z,11.30
2022-11-05T17:11:46.815Z,9.20
2022-11-05T17:16:46.703Z,10.70
2022-11-05T17:21:46.642Z,10.50
2022-11-05T17:26:46.587Z,15.80
2022-11-05T17:31:46.577Z,11.50
2022-11-05T17:36:47.512Z,11.30
2022-11-05T17:41:46.535Z,9.60
2022-11-05T17:46:46.471Z,14.70
2022-11-05T17:51:46.323Z,12.30
2022-11-05T17:56:46.252Z,17.00
2022-11-05T18:01:46.351Z,8.60
2022-11-05T18:06:46.207Z,10.30
2022-11-05T18:11:46.139Z,14.70
2022-11-05T18:16:46.060Z,13.60
2022-11-05T18:21:46.087Z,12.90
2022-11-05T18:26:46.007Z,17.30
2022-11-05T18:31:45.883Z,18.50
2022-11-05T18:36:45.824Z,12.80
2022-11-05T18:41:45.840Z,11.40
2022-11-05T18:46:59.592Z,13.30
2022-11-05T18:51:46.759Z,12.00
2022-11-05T18:56:45.833Z,13.60
2022-11-05T19:01:45.776Z,16.60
2022-11-05T19:06:54.470Z,14.60
2022-11-05T19:11:45.447Z,13.40
2022-11-05T19:16:45.418Z,13.20
2022-11-05T19:21:45.447Z,10.30
2022-11-05T19:26:46.377Z,11.60
2022-11-05T19:31:45.285Z,14.00
2022-11-05T19:36:45.222Z,12.60
2022-11-05T19:41:45.200Z,11.20
2022-11-05T19:46:45.178Z,15.30
2022-11-05T19:51:45.079Z,14.10
2022-11-05T19:56:44.979Z,14.60
2022-11-05T20:01:45.081Z,17.00
2022-11-05T20:06:44.881Z,30.20
2022-11-05T20:11:44.839Z,47.60
2022-11-05T20:16:44.829Z,45.70
2022-11-05T20:21:44.724Z,39.70
2022-11-05T20:26:44.665Z,26.60
2022-11-05T20:31:44.605Z,23.50
2022-11-05T20:36:44.543Z,25.60
2022-11-05T20:41:44.499Z,22.70
2022-11-05T20:46:44.419Z,15.30
2022-11-05T20:51:44.377Z,15.40
2022-11-05T20:56:44.306Z,17.80
2022-11-05T21:01:44.332Z,14.50
2022-11-05T21:06:44.221Z,13.80
2022-11-05T21:11:44.165Z,19.10
2022-11-05T21:16:44.119Z,14.10
2022-11-05T21:21:44.101Z,17.10
2022-11-05T21:26:44.040Z,15.30
2022-11-05T21:31:44.065Z,19.30
2022-11-05T21:36:43.924Z,14.20
2022-11-05T21:41:43.883Z,15.90
2022-11-05T21:46:44.023Z,14.30
2022-11-05T21:51:43.872Z,15.00
2022-11-05T21:56:43.714Z,13.50
2022-11-05T22:01:43.930Z,15.80
2022-11-05T22:06:43.698Z,14.20
2022-11-05T22:11:43.731Z,19.40
2022-11-05T22:16:43.596Z,20.40
2022-11-05T22:21:44.545Z,12.50
2022-11-05T22:26:43.517Z,16.30
2022-11-05T22:31:43.462Z,15.80
2022-11-05T22:36:44.372Z,13.40
2022-11-05T22:41:43.408Z,16.80
2022-11-05T22:46:43.270Z,19.30
2022-11-05T22:51:43.196Z,19.00
2022-11-05T22:56:43.199Z,17.40
2022-11-05T23:01:43.194Z,16.50
2022-11-05T23:06:43.135Z,16.70
2022-11-05T23:11:43.038Z,16.60
2022-11-05T23:16:42.991Z,17.50
2022-11-05T23:21:42.797Z,15.50
2022-11-05T23:26:42.812Z,14.60
2022-11-05T23:31:42.685Z,13.80
2022-11-05T23:36:42.637Z,11.60
2022-11-05T23:41:42.572Z,13.80
2022-11-05T23:46:42.591Z,15.30
2022-11-05T23:51:42.540Z,13.10
2022-11-05T23:56:42.553Z,14.60
